Terminal Aerodrome Forecast
Issued by NWS

Home | Current Version | Previous Version | Text Only | Print | Product List | Glossary On
Versions: 1 2 3 4 5 6 7 8 9 10 11 12 13 14 15 16 17 18 19 20 21 22 23 24 25 26 27
772
FTUS43 KLOT 051733
TAFMDW
TAF
KMDW 051733Z 0518/0618 01012KT P6SM SKC
      TEMPO 0518/0519 35009KT
     FM052100 04009KT P6SM FEW040
     FM060100 25003KT P6SM FEW250
     FM061400 23009KT P6SM SCT090=

USA.gov is the U.S. government's official web portal to all federal, state and local government web resources and services.